Time;durP1;ratioP1;P1;durP2;ratioP2;P2;SDS_P1;SDS_P2;PMS_P1;PMS_P2;Temp;Humidity;BMP_temperature;BMP_pressure;BME280_temperature;BME280_humidity;BME280_pressure;Samples;Min_cycle;Max_cycle;Signal;HPM_P1;HPM_P2
2023/05/07 00:01:53;;;;;;;4.40;3.05;;;17.70;99.90;;;;;;4185937;28;20033;-70
2023/05/07 00:03:53;;;;;;;7.93;3.88;;;17.60;99.90;;;;;;4189204;28;20391;-69
2023/05/07 00:05:54;;;;;;;5.40;3.30;;;17.40;99.90;;;;;;4177536;28;20120;-69
2023/05/07 00:07:55;;;;;;;5.28;3.60;;;17.30;99.90;;;;;;4182295;28;20059;-69
2023/05/07 00:09:55;;;;;;;4.20;3.33;;;17.20;99.90;;;;;;4185125;28;20028;-69
2023/05/07 00:11:56;;;;;;;5.03;3.45;;;17.10;99.90;;;;;;4191926;28;20040;-69
2023/05/07 00:13:56;;;;;;;3.90;3.08;;;17.00;99.90;;;;;;4182173;28;20116;-69
2023/05/07 00:15:57;;;;;;;3.38;2.90;;;17.00;99.90;;;;;;4185024;28;20024;-71
2023/05/07 00:17:59;;;;;;;4.47;2.97;;;17.00;99.90;;;;;;4193070;28;20055;-70
2023/05/07 00:19:59;;;;;;;4.72;2.90;;;17.00;99.90;;;;;;4177894;28;20152;-70
2023/05/07 00:22:00;;;;;;;3.80;2.80;;;17.00;99.90;;;;;;4189297;28;20037;-69
2023/05/07 00:24:01;;;;;;;5.65;3.30;;;17.00;99.90;;;;;;4185637;28;20080;-69
2023/05/07 00:26:01;;;;;;;4.13;3.47;;;17.00;99.90;;;;;;4175778;28;20079;-69
2023/05/07 00:28:03;;;;;;;5.65;3.33;;;17.00;99.90;;;;;;4182965;28;20134;-69
2023/05/07 00:30:04;;;;;;;5.00;3.43;;;17.00;99.90;;;;;;4194481;28;20040;-69
2023/05/07 00:32:05;;;;;;;5.15;3.58;;;17.00;99.90;;;;;;4181832;28;20033;-69
2023/05/07 00:34:06;;;;;;;5.43;3.78;;;17.00;99.90;;;;;;4178304;28;20040;-69
2023/05/07 00:36:06;;;;;;;4.45;3.40;;;17.10;99.90;;;;;;4176927;28;20029;-69
2023/05/07 00:38:07;;;;;;;4.57;3.53;;;17.00;99.90;;;;;;4183728;28;20099;-69
2023/05/07 00:40:09;;;;;;;4.53;3.63;;;17.00;99.90;;;;;;4187240;28;20025;-70
2023/05/07 00:42:09;;;;;;;4.70;3.70;;;17.10;99.90;;;;;;4184445;28;20067;-69
2023/05/07 00:44:10;;;;;;;5.80;3.47;;;17.10;99.90;;;;;;4180906;28;20037;-69
2023/05/07 00:46:11;;;;;;;4.15;3.05;;;17.10;99.90;;;;;;4184986;28;20090;-69
2023/05/07 00:48:13;;;;;;;4.85;3.60;;;17.10;99.90;;;;;;4180916;28;20045;-69
2023/05/07 00:50:13;;;;;;;3.85;3.13;;;17.10;99.90;;;;;;4179493;28;20025;-69
2023/05/07 00:52:16;;;;;;;4.10;3.20;;;17.10;99.90;;;;;;4182754;28;20029;-69
2023/05/07 00:54:17;;;;;;;;;;;17.10;99.90;;;;;;4179062;28;20059;-69
2023/05/07 00:56:17;;;;;;;3.60;2.83;;;17.10;99.90;;;;;;4182464;28;20012;-69
2023/05/07 00:58:19;;;;;;;3.53;3.15;;;17.10;99.90;;;;;;4186691;28;20072;-69
2023/05/07 01:00:20;;;;;;;6.57;3.95;;;17.10;99.90;;;;;;4180226;28;20036;-69
2023/05/07 01:02:21;;;;;;;6.82;4.53;;;17.00;99.90;;;;;;4186935;28;20024;-70
2023/05/07 01:04:22;;;;;;;5.35;4.15;;;16.90;99.90;;;;;;4181598;28;20035;-69
2023/05/07 01:06:25;;;;;;;4.32;3.72;;;16.90;99.90;;;;;;4174499;28;20025;-70
2023/05/07 01:08:29;;;;;;;5.35;4.20;;;17.00;99.90;;;;;;4188519;28;20496;-69
2023/05/07 01:10:30;;;;;;;4.00;3.60;;;17.00;99.90;;;;;;4182080;28;20029;-70
2023/05/07 01:12:31;;;;;;;6.18;3.90;;;17.00;99.90;;;;;;4177985;28;20087;-70
2023/05/07 01:14:32;;;;;;;5.63;3.88;;;17.00;99.90;;;;;;4179195;28;20049;-70
2023/05/07 01:16:33;;;;;;;5.45;3.80;;;17.10;99.90;;;;;;4182777;28;20029;-70
2023/05/07 01:18:34;;;;;;;4.75;3.53;;;17.10;99.90;;;;;;4186043;28;20053;-70
2023/05/07 01:20:35;;;;;;;5.65;3.78;;;17.10;99.90;;;;;;4173758;28;20045;-70
2023/05/07 01:22:39;;;;;;;4.63;3.78;;;17.10;99.90;;;;;;4189330;28;20077;-69
2023/05/07 01:24:41;;;;;;;6.22;4.38;;;17.10;99.90;;;;;;4184324;28;20029;-69
2023/05/07 01:26:44;;;;;;;5.30;3.80;;;17.10;99.90;;;;;;4186050;28;20369;-69
2023/05/07 01:28:45;;;;;;;5.45;3.58;;;17.20;99.90;;;;;;4186963;28;20676;-68
2023/05/07 01:30:55;;;;;;;5.10;3.90;;;17.20;99.90;;;;;;4175463;28;20075;-69
2023/05/07 01:33:07;;;;;;;4.03;3.60;;;17.20;99.90;;;;;;4185531;28;20059;-68
2023/05/07 01:35:14;;;;;;;5.57;3.67;;;17.20;99.90;;;;;;4174816;28;20116;-71
2023/05/07 01:37:14;;;;;;;4.68;3.63;;;17.20;99.90;;;;;;4176339;28;20496;-69
2023/05/07 01:39:15;;;;;;;6.70;4.10;;;17.20;99.90;;;;;;4178887;28;20037;-69
2023/05/07 01:41:16;;;;;;;7.32;4.30;;;17.30;99.90;;;;;;4185560;28;20035;-69
2023/05/07 01:43:17;;;;;;;5.55;4.03;;;17.30;99.90;;;;;;4178079;28;20025;-69
2023/05/07 01:45:18;;;;;;;5.50;3.92;;;17.30;99.90;;;;;;4174639;28;20039;-69
2023/05/07 01:47:20;;;;;;;5.35;3.88;;;17.30;99.90;;;;;;4174645;28;20459;-69
2023/05/07 01:49:21;;;;;;;4.43;3.42;;;17.30;99.90;;;;;;4190094;28;20392;-69
2023/05/07 01:51:22;;;;;;;3.28;2.90;;;17.30;99.90;;;;;;4181361;28;20040;-69
2023/05/07 01:53:22;;;;;;;4.03;3.40;;;17.30;99.90;;;;;;4185807;28;20361;-69
2023/05/07 01:55:23;;;;;;;4.75;3.58;;;17.30;99.90;;;;;;4192302;28;20028;-69
2023/05/07 01:57:24;;;;;;;5.72;3.42;;;17.30;99.90;;;;;;4186263;28;20090;-69
2023/05/07 01:59:24;;;;;;;6.45;3.60;;;17.30;99.90;;;;;;4177476;28;20039;-69
2023/05/07 02:01:25;;;;;;;5.63;3.53;;;17.40;99.90;;;;;;4173590;28;20033;-69
2023/05/07 02:03:26;;;;;;;4.40;3.35;;;17.30;99.90;;;;;;4176135;28;20511;-69
2023/05/07 02:05:26;;;;;;;4.65;3.10;;;17.30;99.90;;;;;;4185220;28;20224;-69
2023/05/07 02:07:27;;;;;;;4.78;3.70;;;17.30;99.90;;;;;;4181286;28;20404;-69
2023/05/07 02:09:28;;;;;;;6.65;4.20;;;17.30;99.90;;;;;;4189655;28;20446;-69
2023/05/07 02:11:28;;;;;;;6.90;4.07;;;17.30;99.90;;;;;;4177245;28;20033;-69
2023/05/07 02:13:32;;;;;;;5.65;4.18;;;17.30;99.90;;;;;;4181769;28;20036;-70
2023/05/07 02:15:32;;;;;;;5.70;4.53;;;17.30;99.90;;;;;;4175149;28;20091;-70
2023/05/07 02:17:33;;;;;;;4.47;4.05;;;17.30;99.90;;;;;;4181828;28;20048;-70
2023/05/07 02:19:35;;;;;;;6.28;5.00;;;17.30;99.90;;;;;;4185370;28;20032;-70
2023/05/07 02:21:35;;;;;;;8.20;5.30;;;17.30;99.90;;;;;;4178449;28;20491;-69
2023/05/07 02:23:36;;;;;;;7.13;5.22;;;17.20;99.90;;;;;;4187941;28;20028;-69
2023/05/07 02:25:36;;;;;;;6.95;5.63;;;17.20;99.90;;;;;;4178843;28;20133;-69
2023/05/07 02:27:37;;;;;;;9.43;6.38;;;17.10;99.90;;;;;;4183973;28;20029;-69
2023/05/07 02:29:37;;;;;;;7.20;5.47;;;17.00;99.90;;;;;;4182584;28;20063;-69
2023/05/07 02:31:38;;;;;;;9.70;6.57;;;16.80;99.90;;;;;;4171271;28;20518;-69
2023/05/07 02:33:38;;;;;;;7.80;5.80;;;16.70;99.90;;;;;;4175807;28;20048;-70
2023/05/07 02:35:39;;;;;;;6.93;5.43;;;16.60;99.90;;;;;;4190486;28;20028;-70
2023/05/07 02:37:40;;;;;;;8.50;6.47;;;16.60;99.90;;;;;;4191615;28;20078;-70
2023/05/07 02:39:40;;;;;;;9.00;5.95;;;16.50;99.90;;;;;;4186588;28;20064;-70
2023/05/07 02:41:41;;;;;;;8.10;6.45;;;16.40;99.90;;;;;;4175833;28;20112;-70
2023/05/07 02:43:41;;;;;;;9.65;6.28;;;16.30;99.90;;;;;;4181004;28;20040;-69
2023/05/07 02:45:43;;;;;;;10.38;6.85;;;16.20;99.90;;;;;;4177660;28;20484;-69
2023/05/07 02:47:43;;;;;;;8.50;5.95;;;16.10;99.90;;;;;;4184937;28;20031;-70
2023/05/07 02:49:44;;;;;;;8.07;5.80;;;16.10;99.90;;;;;;4185650;28;20473;-69
2023/05/07 02:51:45;;;;;;;6.78;5.43;;;16.00;99.90;;;;;;4184822;28;20479;-70
2023/05/07 02:53:45;;;;;;;7.60;5.32;;;16.00;99.90;;;;;;4181088;28;20037;-69
2023/05/07 02:55:46;;;;;;;10.65;5.38;;;15.90;99.90;;;;;;4179788;28;20029;-69
2023/05/07 02:57:47;;;;;;;11.32;6.05;;;15.90;99.90;;;;;;4183157;28;20029;-69
2023/05/07 02:59:47;;;;;;;7.72;5.70;;;15.80;99.90;;;;;;4182258;28;20403;-69
2023/05/07 03:01:48;;;;;;;7.40;5.70;;;15.80;99.90;;;;;;4175363;28;20033;-70
2023/05/07 03:03:48;;;;;;;7.35;5.72;;;15.80;99.90;;;;;;4182541;28;20029;-69
2023/05/07 03:05:49;;;;;;;8.88;6.07;;;15.70;99.90;;;;;;4198206;28;20040;-69
2023/05/07 03:07:50;;;;;;;6.03;4.57;;;15.70;99.90;;;;;;4183129;28;20102;-69
2023/05/07 03:09:50;;;;;;;7.28;5.00;;;15.70;99.90;;;;;;4182605;28;20033;-69
2023/05/07 03:11:51;;;;;;;7.85;5.30;;;15.80;99.90;;;;;;4191415;28;20467;-69
2023/05/07 03:13:52;;;;;;;8.40;5.53;;;15.80;99.90;;;;;;4181736;28;20403;-69
2023/05/07 03:15:52;;;;;;;6.15;4.88;;;15.90;99.90;;;;;;4178385;28;20029;-70
2023/05/07 03:17:53;;;;;;;9.88;5.93;;;15.90;99.90;;;;;;4180484;28;20045;-70
2023/05/07 03:19:54;;;;;;;8.55;5.63;;;15.90;99.90;;;;;;4180871;28;20122;-70
2023/05/07 03:21:55;;;;;;;7.28;5.32;;;15.90;99.90;;;;;;4188041;28;20041;-69
2023/05/07 03:23:56;;;;;;;8.07;6.10;;;15.90;99.90;;;;;;4181481;28;20033;-70
2023/05/07 03:25:56;;;;;;;11.18;6.00;;;15.90;99.90;;;;;;4186178;28;20052;-70
2023/05/07 03:27:57;;;;;;;6.88;4.93;;;15.90;99.90;;;;;;4191837;28;20024;-70
2023/05/07 03:29:58;;;;;;;5.90;4.80;;;16.00;99.90;;;;;;4185865;28;20491;-69
2023/05/07 03:31:58;;;;;;;6.47;5.03;;;16.00;99.90;;;;;;4177161;28;20044;-70
2023/05/07 03:33:59;;;;;;;5.78;4.78;;;16.00;99.90;;;;;;4187382;28;20036;-70
2023/05/07 03:35:59;;;;;;;8.90;5.68;;;16.00;99.90;;;;;;4179145;28;20037;-70
2023/05/07 03:38:01;;;;;;;7.20;5.22;;;16.10;99.90;;;;;;4176449;28;20040;-70
2023/05/07 03:40:02;;;;;;;8.13;5.00;;;16.10;99.90;;;;;;4172941;28;20183;-70
2023/05/07 03:42:03;;;;;;;6.60;4.72;;;16.10;99.90;;;;;;4179628;28;20033;-70
2023/05/07 03:44:03;;;;;;;6.53;5.03;;;16.20;99.90;;;;;;4172784;28;20041;-69
2023/05/07 03:46:04;;;;;;;6.60;4.60;;;16.20;99.90;;;;;;4173693;28;20086;-70
2023/05/07 03:48:05;;;;;;;7.40;5.85;;;16.20;99.90;;;;;;4179476;28;20033;-69
2023/05/07 03:50:06;;;;;;;8.10;5.57;;;16.30;99.90;;;;;;4172743;28;20044;-70
2023/05/07 03:52:06;;;;;;;6.85;5.10;;;16.30;99.90;;;;;;4175365;28;20060;-70
2023/05/07 03:54:07;;;;;;;6.32;4.68;;;16.30;99.90;;;;;;4176659;28;20044;-69
2023/05/07 03:56:08;;;;;;;8.27;6.15;;;16.30;99.90;;;;;;4180034;28;20469;-70
2023/05/07 03:58:08;;;;;;;9.25;6.60;;;16.20;99.90;;;;;;4179958;28;20120;-69
2023/05/07 04:00:10;;;;;;;7.15;5.95;;;16.10;99.90;;;;;;4179753;28;20063;-70
2023/05/07 04:02:10;;;;;;;9.95;6.43;;;16.10;99.90;;;;;;4178418;28;20032;-70
2023/05/07 04:04:11;;;;;;;8.93;6.50;;;16.00;99.90;;;;;;4180550;28;20033;-69
2023/05/07 04:06:12;;;;;;;8.80;6.50;;;15.90;99.90;;;;;;4177792;28;20635;-69
2023/05/07 04:08:12;;;;;;;9.23;6.65;;;15.70;99.90;;;;;;4182004;28;20098;-69
2023/05/07 04:10:13;;;;;;;10.38;7.18;;;15.70;99.90;;;;;;4186341;28;20064;-70
2023/05/07 04:12:14;;;;;;;8.80;6.82;;;15.70;99.90;;;;;;4186372;28;22940;-70
2023/05/07 04:14:15;;;;;;;9.85;7.40;;;15.60;99.90;;;;;;4182124;28;20044;-69
2023/05/07 04:16:16;;;;;;;9.52;6.95;;;15.50;99.90;;;;;;4175938;28;20025;-69
2023/05/07 04:18:16;;;;;;;8.73;6.35;;;15.50;99.90;;;;;;4178489;28;20048;-69
2023/05/07 04:20:17;;;;;;;8.32;6.15;;;15.50;99.90;;;;;;4188027;28;20035;-69
2023/05/07 04:22:18;;;;;;;8.57;6.50;;;15.60;99.90;;;;;;4181951;28;20037;-69
2023/05/07 04:24:18;;;;;;;7.78;5.75;;;15.60;99.90;;;;;;4181925;28;20031;-70
2023/05/07 04:26:21;;;;;;;7.13;5.88;;;15.70;99.90;;;;;;4189582;28;20056;-69
2023/05/07 04:28:21;;;;;;;6.47;5.38;;;15.70;99.90;;;;;;4182613;28;20040;-70
2023/05/07 04:30:22;;;;;;;6.72;5.15;;;15.70;99.90;;;;;;4176004;28;21673;-69
2023/05/07 04:32:24;;;;;;;7.00;5.70;;;15.70;99.90;;;;;;4183559;28;20040;-69
2023/05/07 04:34:25;;;;;;;7.18;5.57;;;15.80;99.90;;;;;;4184299;28;20040;-70
2023/05/07 04:36:28;;;;;;;7.00;5.43;;;15.90;99.90;;;;;;4181257;28;20036;-70
2023/05/07 04:38:31;;;;;;;7.72;5.63;;;15.90;99.90;;;;;;4177444;28;20377;-69
2023/05/07 04:40:31;;;;;;;7.78;6.00;;;16.00;99.90;;;;;;4176135;28;20068;-70
2023/05/07 04:42:32;;;;;;;7.30;5.43;;;16.00;99.90;;;;;;4184620;28;20029;-70
2023/05/07 04:44:32;;;;;;;6.10;5.15;;;16.10;99.90;;;;;;4177850;28;20048;-69
2023/05/07 04:46:33;;;;;;;6.35;5.22;;;16.10;99.90;;;;;;4176584;28;20037;-69
2023/05/07 04:48:33;;;;;;;7.05;5.70;;;16.10;99.90;;;;;;4185795;28;20033;-69
2023/05/07 04:50:34;;;;;;;8.02;6.07;;;16.20;99.90;;;;;;4181386;28;20179;-69
2023/05/07 04:52:35;;;;;;;9.10;6.95;;;16.20;99.90;;;;;;4187534;28;20029;-70
2023/05/07 04:54:35;;;;;;;8.25;5.63;;;16.30;99.90;;;;;;4185762;28;20120;-69
2023/05/07 04:56:36;;;;;;;7.30;5.82;;;16.30;99.90;;;;;;4178011;28;20028;-69
2023/05/07 04:58:37;;;;;;;8.07;5.38;;;16.30;99.90;;;;;;4176036;28;20033;-70
2023/05/07 05:00:39;;;;;;;7.65;5.85;;;16.30;99.90;;;;;;4180130;28;20472;-70
2023/05/07 05:02:40;;;;;;;9.25;6.43;;;16.30;99.90;;;;;;4188197;28;20025;-69
2023/05/07 05:04:41;;;;;;;11.35;6.97;;;16.20;99.90;;;;;;4176697;28;20056;-70
2023/05/07 05:06:42;;;;;;;8.65;6.22;;;16.20;99.90;;;;;;4175580;28;20488;-69
2023/05/07 05:08:42;;;;;;;9.80;7.00;;;16.20;99.90;;;;;;4180327;28;20036;-69
2023/05/07 05:10:43;;;;;;;9.98;7.38;;;16.10;99.90;;;;;;4177414;28;20028;-69
2023/05/07 05:12:44;;;;;;;8.18;6.38;;;16.10;99.90;;;;;;4181335;28;20043;-69
2023/05/07 05:14:44;;;;;;;8.27;6.20;;;16.10;99.90;;;;;;4177476;28;20041;-69
2023/05/07 05:16:45;;;;;;;9.20;6.47;;;16.10;99.90;;;;;;4184835;28;20040;-69
2023/05/07 05:18:45;;;;;;;7.75;5.95;;;16.10;99.90;;;;;;4180570;28;20391;-70
2023/05/07 05:20:46;;;;;;;7.82;5.78;;;16.20;99.90;;;;;;4176780;28;20100;-69
2023/05/07 05:22:47;;;;;;;10.98;6.85;;;16.20;99.90;;;;;;4170520;28;20039;-69
2023/05/07 05:24:48;;;;;;;8.32;5.95;;;16.20;99.90;;;;;;4177529;28;20071;-69
2023/05/07 05:26:48;;;;;;;8.02;6.22;;;16.30;99.90;;;;;;4175578;28;20032;-70
2023/05/07 05:28:49;;;;;;;9.38;6.47;;;16.40;99.90;;;;;;4177416;28;20400;-70
2023/05/07 05:30:50;;;;;;;8.52;6.22;;;16.40;99.90;;;;;;4175728;28;20036;-69
2023/05/07 05:32:50;;;;;;;7.82;5.90;;;16.50;99.90;;;;;;4174261;28;20029;-69
2023/05/07 05:34:51;;;;;;;8.75;6.68;;;16.50;99.90;;;;;;4171744;28;21904;-69
2023/05/07 05:36:51;;;;;;;8.93;6.45;;;16.60;99.90;;;;;;4175427;28;20041;-69
2023/05/07 05:38:52;;;;;;;6.78;5.70;;;16.70;99.90;;;;;;4177538;28;20041;-69
2023/05/07 05:40:52;;;;;;;8.63;6.15;;;16.70;99.90;;;;;;4176560;28;20563;-69
2023/05/07 05:42:54;;;;;;;8.60;6.43;;;16.70;99.90;;;;;;4175665;28;20051;-69
2023/05/07 05:44:55;;;;;;;8.07;5.88;;;16.70;99.90;;;;;;4182496;28;20057;-69
2023/05/07 05:46:57;;;;;;;14.15;6.80;;;16.80;99.90;;;;;;4172584;28;20044;-69
2023/05/07 05:48:58;;;;;;;9.02;6.53;;;16.90;99.90;;;;;;4175889;28;20085;-70
2023/05/07 05:50:58;;;;;;;9.45;6.97;;;16.80;99.90;;;;;;4175489;28;20061;-69
2023/05/07 05:52:59;;;;;;;8.05;6.13;;;16.90;99.90;;;;;;4176840;28;20041;-70
2023/05/07 05:54:59;;;;;;;6.55;5.03;;;16.90;99.90;;;;;;4179028;28;20029;-69
2023/05/07 05:57:00;;;;;;;5.68;4.45;;;16.90;99.90;;;;;;4174150;28;20056;-70
2023/05/07 05:59:00;;;;;;;6.95;4.13;;;17.00;99.90;;;;;;4175735;28;20056;-72
2023/05/07 06:01:02;;;;;;;4.85;3.28;;;17.00;99.90;;;;;;4174067;28;20078;-71
2023/05/07 06:03:03;;;;;;;7.20;3.00;;;17.10;99.90;;;;;;4173927;28;20555;-68
2023/05/07 06:05:04;;;;;;;6.63;3.95;;;17.10;99.90;;;;;;4175058;28;20060;-70
2023/05/07 06:07:05;;;;;;;4.53;3.20;;;17.20;99.90;;;;;;4173220;28;20040;-70
2023/05/07 06:09:05;;;;;;;4.68;2.97;;;17.20;99.90;;;;;;4175627;28;20021;-70
2023/05/07 06:11:06;;;;;;;3.78;2.58;;;17.20;99.90;;;;;;4172221;28;20044;-70
2023/05/07 06:13:07;;;;;;;4.25;2.83;;;17.20;99.90;;;;;;4177109;28;20029;-70
2023/05/07 06:15:08;;;;;;;5.25;3.03;;;17.30;99.90;;;;;;4176329;28;20033;-70
2023/05/07 06:17:09;;;;;;;4.25;3.00;;;17.30;99.90;;;;;;4176473;28;20041;-70
2023/05/07 06:19:10;;;;;;;5.15;2.53;;;17.40;99.90;;;;;;4182408;28;20024;-70
2023/05/07 06:21:10;;;;;;;4.95;2.85;;;17.40;99.90;;;;;;4178674;28;20048;-69
2023/05/07 06:23:11;;;;;;;5.75;3.00;;;17.40;99.90;;;;;;4178976;28;20029;-70
2023/05/07 06:25:11;;;;;;;6.05;3.03;;;17.40;99.90;;;;;;4175885;28;20045;-70
2023/05/07 06:27:12;;;;;;;5.22;2.58;;;17.40;99.90;;;;;;4174003;28;20032;-70
2023/05/07 06:29:13;;;;;;;4.20;3.10;;;17.50;99.90;;;;;;4179544;28;20037;-70
2023/05/07 06:31:20;;;;;;;4.30;2.67;;;17.50;99.90;;;;;;4175843;28;20029;-69
2023/05/07 06:33:20;;;;;;;5.55;3.30;;;17.50;99.90;;;;;;4173230;28;20488;-70
2023/05/07 06:35:21;;;;;;;5.53;2.92;;;17.60;99.90;;;;;;4176048;28;20037;-70
2023/05/07 06:37:21;;;;;;;4.57;3.40;;;17.60;99.90;;;;;;4178320;28;20114;-71
2023/05/07 06:39:22;;;;;;;5.95;3.33;;;17.60;99.90;;;;;;4175921;28;20051;-70
2023/05/07 06:41:23;;;;;;;6.95;4.15;;;17.60;99.90;;;;;;4175989;28;20047;-70
2023/05/07 06:43:23;;;;;;;5.65;3.60;;;17.60;99.90;;;;;;4175360;28;20095;-70
2023/05/07 06:45:25;;;;;;;4.75;3.35;;;17.60;99.90;;;;;;4175917;28;20044;-70
2023/05/07 06:47:25;;;;;;;6.60;3.88;;;17.60;99.90;;;;;;4176905;28;20036;-69
2023/05/07 06:49:26;;;;;;;5.38;3.97;;;17.60;99.90;;;;;;4179735;28;20063;-70
2023/05/07 06:51:26;;;;;;;7.35;4.45;;;17.60;99.90;;;;;;4178043;28;20037;-71
2023/05/07 06:53:28;;;;;;;9.25;5.03;;;17.40;99.90;;;;;;4178900;28;20124;-70
2023/05/07 06:55:29;;;;;;;7.68;4.53;;;17.40;99.90;;;;;;4172282;28;20391;-70
2023/05/07 06:57:30;;;;;;;6.18;3.90;;;17.40;99.90;;;;;;4174499;28;20049;-70
2023/05/07 06:59:30;;;;;;;5.63;3.80;;;17.40;99.90;;;;;;4174610;28;20025;-70
2023/05/07 07:01:31;;;;;;;5.28;3.70;;;17.50;99.90;;;;;;4175303;28;20167;-70
2023/05/07 07:03:31;;;;;;;6.32;3.97;;;17.50;99.90;;;;;;4174226;28;20033;-70
2023/05/07 07:05:32;;;;;;;8.07;4.28;;;17.50;99.90;;;;;;4176885;28;20115;-71
2023/05/07 07:07:32;;;;;;;6.05;4.20;;;17.50;99.90;;;;;;4173722;28;20024;-71
2023/05/07 07:09:33;;;;;;;6.05;4.07;;;17.40;99.90;;;;;;4178619;28;20514;-69
2023/05/07 07:11:34;;;;;;;5.65;4.03;;;17.50;99.90;;;;;;4180154;28;20037;-71
2023/05/07 07:13:34;;;;;;;6.07;3.95;;;17.50;99.90;;;;;;4171177;28;20391;-70
2023/05/07 07:15:35;;;;;;;8.77;4.75;;;17.60;99.90;;;;;;4175102;28;20037;-70
2023/05/07 07:17:35;;;;;;;6.53;4.35;;;17.60;99.90;;;;;;4176236;28;20052;-70
2023/05/07 07:19:37;;;;;;;7.47;4.40;;;17.60;99.90;;;;;;4175825;28;20068;-70
2023/05/07 07:21:38;;;;;;;5.82;4.57;;;17.60;99.90;;;;;;4174247;28;20037;-71
2023/05/07 07:23:38;;;;;;;8.45;4.38;;;17.70;99.90;;;;;;4170049;28;20025;-71
2023/05/07 07:25:39;;;;;;;6.13;4.07;;;17.80;99.90;;;;;;4175747;28;20047;-70
2023/05/07 07:27:39;;;;;;;5.85;3.97;;;17.90;99.90;;;;;;4174317;28;20033;-70
2023/05/07 07:29:40;;;;;;;7.38;4.28;;;18.00;99.90;;;;;;4177769;28;20108;-72
2023/05/07 07:31:41;;;;;;;5.30;3.30;;;18.00;99.90;;;;;;4165653;28;20034;-72
2023/05/07 07:33:41;;;;;;;5.50;3.55;;;18.00;99.90;;;;;;4171165;28;20041;-72
2023/05/07 07:35:42;;;;;;;6.18;3.67;;;18.00;99.90;;;;;;4176605;28;20130;-72
2023/05/07 07:37:42;;;;;;;6.43;3.55;;;18.00;99.90;;;;;;4173840;28;20036;-72
2023/05/07 07:39:43;;;;;;;5.90;3.75;;;18.00;99.90;;;;;;4180380;28;20083;-72
2023/05/07 07:41:44;;;;;;;6.93;3.30;;;18.10;99.90;;;;;;4179259;28;20035;-72
2023/05/07 07:43:46;;;;;;;6.78;3.67;;;18.20;99.90;;;;;;4172648;28;20040;-72
2023/05/07 07:45:47;;;;;;;6.82;3.20;;;18.30;99.90;;;;;;4185461;28;20483;-72
2023/05/07 07:47:47;;;;;;;7.32;3.65;;;18.30;99.90;;;;;;4178472;28;20025;-72
2023/05/07 07:49:48;;;;;;;5.78;3.17;;;18.40;99.90;;;;;;4178230;28;20057;-72
2023/05/07 07:51:48;;;;;;;4.97;3.05;;;18.60;99.90;;;;;;4180761;28;20063;-72
2023/05/07 07:53:49;;;;;;;8.38;4.15;;;18.60;99.90;;;;;;4195261;28;20102;-72
2023/05/07 07:55:50;;;;;;;5.72;3.63;;;18.70;99.90;;;;;;4173199;28;20061;-72
2023/05/07 07:57:50;;;;;;;6.45;3.67;;;18.80;99.90;;;;;;4178695;28;20480;-72
2023/05/07 07:59:51;;;;;;;5.43;2.90;;;18.90;99.90;;;;;;4182076;28;20055;-72
2023/05/07 08:01:55;;;;;;;6.25;3.53;;;18.90;99.90;;;;;;4176617;28;20033;-72
2023/05/07 08:03:57;;;;;;;6.43;3.85;;;19.00;99.90;;;;;;4184005;28;20053;-73
2023/05/07 08:05:58;;;;;;;5.72;2.97;;;19.00;99.90;;;;;;4183213;28;20055;-72
2023/05/07 08:07:58;;;;;;;5.32;3.08;;;19.10;99.90;;;;;;4185423;28;20029;-71
2023/05/07 08:09:59;;;;;;;6.75;3.53;;;19.10;99.90;;;;;;4179044;28;20029;-72
2023/05/07 08:12:00;;;;;;;6.63;3.17;;;19.10;99.90;;;;;;4178787;28;20056;-72
2023/05/07 08:14:01;;;;;;;4.57;3.13;;;19.10;99.90;;;;;;4179279;28;20041;-72
2023/05/07 08:16:02;;;;;;;4.70;2.72;;;19.20;99.90;;;;;;4176499;28;20029;-72
2023/05/07 08:18:02;;;;;;;9.35;4.13;;;19.20;99.90;;;;;;4181827;28;20399;-72
2023/05/07 08:20:04;;;;;;;5.32;2.95;;;19.20;99.90;;;;;;4179729;28;20039;-73
2023/05/07 08:22:05;;;;;;;4.95;2.72;;;19.20;99.90;;;;;;4182928;28;20032;-72
2023/05/07 08:24:06;;;;;;;5.85;2.78;;;19.20;99.90;;;;;;4175762;28;20025;-72
2023/05/07 08:26:09;;;;;;;5.00;3.03;;;19.20;99.90;;;;;;4175467;28;20040;-73
2023/05/07 08:28:09;;;;;;;5.63;3.08;;;19.30;99.90;;;;;;4178620;28;20498;-72
2023/05/07 08:30:10;;;;;;;5.03;3.20;;;19.40;99.90;;;;;;4180452;28;20072;-73
2023/05/07 08:32:11;;;;;;;5.18;2.72;;;19.40;99.90;;;;;;4183932;28;20727;-72
2023/05/07 08:34:11;;;;;;;4.32;2.50;;;19.50;99.90;;;;;;4189871;28;20045;-73
2023/05/07 08:36:12;;;;;;;6.00;3.30;;;19.50;99.90;;;;;;4180793;28;20033;-72
2023/05/07 08:38:12;;;;;;;4.75;2.85;;;19.60;99.90;;;;;;4178725;28;20040;-73
2023/05/07 08:40:13;;;;;;;5.88;3.17;;;19.70;99.90;;;;;;4177863;28;20033;-73
2023/05/07 08:42:16;;;;;;;5.50;2.72;;;19.70;99.90;;;;;;4183174;28;20033;-72
2023/05/07 08:44:22;;;;;;;4.20;2.63;;;19.80;99.90;;;;;;4191197;28;20037;-73
2023/05/07 08:46:24;;;;;;;4.43;3.05;;;19.80;99.90;;;;;;4182769;28;20040;-73
2023/05/07 08:48:27;;;;;;;10.65;2.60;;;19.90;99.90;;;;;;4179152;28;20427;-73
2023/05/07 08:50:28;;;;;;;6.15;3.22;;;20.00;99.90;;;;;;4180426;28;20043;-73
2023/05/07 08:52:28;;;;;;;2.72;2.42;;;20.00;99.90;;;;;;4178226;28;20036;-72
2023/05/07 08:54:30;;;;;;;3.20;2.40;;;20.10;99.90;;;;;;4184817;28;20060;-73
2023/05/07 08:56:31;;;;;;;5.38;2.58;;;20.10;99.90;;;;;;4176018;28;20056;-72
2023/05/07 08:58:31;;;;;;;4.15;2.58;;;20.30;99.90;;;;;;4178610;28;20029;-72
2023/05/07 09:00:32;;;;;;;4.80;2.75;;;20.30;99.90;;;;;;4177674;28;20058;-73
2023/05/07 09:02:35;;;;;;;4.70;2.92;;;20.40;99.90;;;;;;4174275;28;20041;-73
2023/05/07 09:04:35;;;;;;;5.05;2.85;;;20.40;99.90;;;;;;4175160;28;20037;-73
2023/05/07 09:06:37;;;;;;;5.15;2.88;;;20.50;99.90;;;;;;4187738;28;20078;-72
2023/05/07 09:08:38;;;;;;;4.25;2.45;;;20.60;99.90;;;;;;4176261;28;20112;-72
2023/05/07 09:10:39;;;;;;;8.70;3.95;;;20.70;99.90;;;;;;4178130;28;20492;-72
2023/05/07 09:12:40;;;;;;;6.70;4.13;;;20.60;99.90;;;;;;4178978;28;20033;-72
2023/05/07 09:14:40;;;;;;;5.10;3.15;;;20.60;99.90;;;;;;4176863;28;20033;-73
2023/05/07 09:16:41;;;;;;;6.00;3.33;;;20.70;99.90;;;;;;4173463;28;20028;-72
2023/05/07 09:18:43;;;;;;;7.32;3.60;;;20.80;99.90;;;;;;4179326;28;20048;-72
2023/05/07 09:20:43;;;;;;;4.67;3.20;;;20.80;99.90;;;;;;4182676;28;20569;-72
2023/05/07 09:22:44;;;;;;;7.00;2.80;;;20.80;99.90;;;;;;4183465;28;20324;-73
2023/05/07 09:24:49;;;;;;;4.05;2.63;;;20.90;99.90;;;;;;4180356;28;20124;-72
2023/05/07 09:26:50;;;;;;;4.13;2.42;;;21.10;99.90;;;;;;4167738;28;20528;-73
2023/05/07 09:28:51;;;;;;;4.43;2.55;;;21.20;99.90;;;;;;4177375;28;20059;-72
2023/05/07 09:30:51;;;;;;;5.78;3.03;;;21.30;99.90;;;;;;4182192;28;20431;-73
2023/05/07 09:32:53;;;;;;;7.82;3.13;;;21.20;99.90;;;;;;4182180;28;20025;-74
2023/05/07 09:34:54;;;;;;;4.75;2.65;;;21.20;99.90;;;;;;4187919;28;20037;-74
2023/05/07 09:36:55;;;;;;;4.30;2.17;;;21.30;99.90;;;;;;4179333;28;20061;-74
2023/05/07 09:38:56;;;;;;;5.15;2.58;;;21.40;99.90;;;;;;4181715;28;20044;-73
2023/05/07 09:41:07;;;;;;;4.88;2.88;;;21.50;99.90;;;;;;4186200;28;20048;-73
2023/05/07 09:43:12;;;;;;;2.53;1.73;;;21.50;99.90;;;;;;4179177;28;20044;-72
2023/05/07 09:45:13;;;;;;;5.30;2.97;;;21.60;99.90;;;;;;4186485;28;20033;-72
2023/05/07 09:47:19;;;;;;;4.20;2.65;;;21.60;99.90;;;;;;4191265;28;20368;-73
2023/05/07 09:49:24;;;;;;;5.20;2.63;;;21.70;99.90;;;;;;4176524;28;20037;-73
2023/05/07 09:51:29;;;;;;;5.32;2.83;;;21.70;99.90;;;;;;4191490;28;20033;-73
2023/05/07 09:53:31;;;;;;;6.07;3.63;;;21.80;99.90;;;;;;4181973;28;20045;-74
2023/05/07 09:55:31;;;;;;;9.27;3.85;;;21.90;99.90;;;;;;4177959;28;20060;-73
2023/05/07 09:57:33;;;;;;;5.72;3.40;;;21.90;99.90;;;;;;4180820;28;20513;-73
2023/05/07 09:59:36;;;;;;;7.10;3.40;;;21.90;99.90;;;;;;4183095;28;21304;-72
2023/05/07 10:01:38;;;;;;;5.05;2.70;;;22.00;99.90;;;;;;4175630;28;20032;-73
2023/05/07 10:03:42;;;;;;;4.00;2.33;;;22.00;99.90;;;;;;4177736;28;20420;-72
2023/05/07 10:05:44;;;;;;;4.45;2.60;;;22.00;99.90;;;;;;4174989;28;20036;-73
2023/05/07 10:07:45;;;;;;;4.18;2.38;;;22.10;99.90;;;;;;4173346;28;20128;-70
2023/05/07 10:09:46;;;;;;;2.92;2.05;;;22.10;99.90;;;;;;4185367;28;20123;-70
2023/05/07 10:11:49;;;;;;;2.47;2.08;;;22.20;99.90;;;;;;4177404;28;20061;-70
2023/05/07 10:13:52;;;;;;;3.28;1.85;;;22.30;99.90;;;;;;4172811;28;20040;-70
2023/05/07 10:15:53;;;;;;;4.53;2.40;;;22.40;99.90;;;;;;4172060;28;20384;-70
2023/05/07 10:17:55;;;;;;;2.75;2.00;;;22.40;99.90;;;;;;4173413;28;20041;-70
2023/05/07 10:19:56;;;;;;;3.40;2.33;;;22.50;99.90;;;;;;4170391;28;20064;-70
2023/05/07 10:22:02;;;;;;;3.35;1.90;;;22.50;99.90;;;;;;4172432;28;20052;-70
2023/05/07 10:24:13;;;;;;;2.95;1.80;;;22.60;99.90;;;;;;4173933;28;20132;-70
2023/05/07 10:26:15;;;;;;;3.30;1.83;;;22.60;99.90;;;;;;4172615;28;20045;-70
2023/05/07 10:28:17;;;;;;;3.47;1.70;;;22.70;99.90;;;;;;4178260;28;20033;-71
2023/05/07 10:30:36;;;;;;;3.05;2.00;;;22.80;99.90;;;;;;4173496;28;20037;-70
2023/05/07 10:32:41;;;;;;;2.92;1.80;;;22.90;99.90;;;;;;4172965;28;20029;-69